Impacts METAR Board
IDs:

KTPA - Tampa Intl Arpt, FL, US

Updated at: 0200 UTC 20 Mar 2019
Potential Impact None Slight Moderate High
Time 19/14Z 19/15Z 19/16Z 19/17Z 19/18Z 19/19Z 19/20Z 19/21Z 19/22Z 19/23Z 20/00Z 20/01Z 20/02Z
Temp56 58 60 61 61 63 63 64 64 64 64 63 63
Dewpt49 49 49 52 52 54 56 56 57 57 58 57 55
Altim30.14 30.15 30.17 30.16 30.14 30.13 30.11 30.09 30.09 30.10 30.10 30.10 30.13
VIS10 10 10 10 10 10 10 10 10 10 10 10 10
CIG95 90 75 80 80 80 75 80 75 80 80 38 37
CoverOVCOVCOVCOVCOVCOVCOVCOVCOVCOVCOVCOVCOVC
FltCatVFRVFRVFRVFRVFRVFRVFRVFRVFRVFRVFRVFRVFR
WX-RA-----------RA------------
WDir30504030203020305060102030
WSpd6 7 10 7 8 5 6 7 4 3 5 8 12
WGst-- -- 14 -- -- -- -- -- -- -- -- -- 18
Raw hourly METARs
KTPA 191353Z 03006KT 10SM -RA SCT050 OVC095 13/09 A3014 RMK AO2 RAB12 SLP207 P0002 T01330094
KTPA 191453Z 05007KT 10SM SCT050 OVC090 14/09 A3015 RMK AO2 RAE1356 SLP207 P0000 60002 T01440094 51007
KTPA 191553Z 04010G14KT 10SM BKN075 OVC090 16/09 A3017 RMK AO2 SLP215 T01560094
KTPA 191653Z 03007KT 10SM BKN080 OVC100 16/11 A3016 RMK AO2 RAB25E43 SLP211 P0000 T01610111
KTPA 191753Z 02008KT 10SM OVC080 16/11 A3014 RMK AO2 SLP207 60002 T01610111 10167 20133 50000
KTPA 191853Z 03005KT 10SM FEW025 OVC080 17/12 A3013 RMK AO2 SLP202 T01720122
KTPA 191953Z 02006KT 10SM -RA FEW022 OVC075 17/13 A3011 RMK AO2 RAB17E31B52 SLP194 P0000 T01720133
KTPA 192053Z 03007KT 10SM FEW020 BKN080 OVC110 18/13 A3009 RMK AO2 RAE01 SLP190 P0000 60000 T01780133 56018
KTPA 192153Z 05004KT 10SM FEW020 OVC075 18/14 A3009 RMK AO2 RAB16E45 SLP188 P0000 T01780139
KTPA 192253Z 06003KT 10SM FEW028 BKN080 OVC110 18/14 A3010 RMK AO2 SLP191 T01780139
KTPA 192353Z 01005KT 10SM SCT032 BKN080 OVC110 18/14 A3010 RMK AO2 SLP194 60000 T01780144 10189 20161 53004
KTPA 200053Z 02008KT 10SM SCT026 BKN038 BKN080 OVC150 17/14 A3010 RMK AO2 SLP194 T01720139
KTPA 200153Z 03012G18KT 10SM SCT018 BKN037 BKN060 OVC150 17/13 A3013 RMK AO2 SLP204 T01720128



Page loaded:  02:51 UTC  |   07:51 PM Pacific  |   08:51 PM Mountain  |   09:51 PM Central  |   10:51 PM Eastern

 

ADVISORIES

FORECASTS

FORECASTS

OBSERVATIONS

USER TOOLS

ABOUT US